CHZ112 EDDK-LLBG
Flight info
| Callsign | CHZ112 |
|---|---|
| Flight time | 3h 24m |
| Altitude | 35000 |
| Route | KUMIK2Q KUMIK L603 TESGA DCT ESATI DCT DETEV DCT DINKU DCT BESNI DCT LATLO DCT OBEDI DCT DIPSA DCT PODET DCT IRDIV DCT PODOB DCT MEDUX UM867 KOGAT DCT ERANA UL737 TSL DCT KERES DCT AKINA DCT VANZA DCT PIKOG L609 ZUKKO |
| Aircraft | B77L/H-SDE1E2E3FGHIJ2J3J4J5M1RWXY/LB1D1 |
Departure
| Time | 2026-04-22 07:58 |
|---|---|
| Airport | Cologne Bonn Airport (EDDK) |
Arrival
| Time | 2026-04-22 11:22 |
|---|---|
| Airport | Ben Gurion International Airport (LLBG) |
| Time | Latitude | Longitude | Altitude | Speed | Heading |
|---|---|---|---|---|---|
| 2026-04-22 07:32 | 50.87587 | 7.12772 | 237 ft | 0 kts | 227° |
| 2026-04-22 07:49 | 50.87593 | 7.12782 | 237 ft | 4 kts | 230° |
| 2026-04-22 07:50 | 50.87608 | 7.12817 | 237 ft | 4 kts | 245° |
| 2026-04-22 07:50 | 50.87617 | 7.12856 | 237 ft | 4 kts | 265° |
| 2026-04-22 07:50 | 50.87615 | 7.12898 | 237 ft | 4 kts | 289° |
| 2026-04-22 07:50 | 50.87603 | 7.12936 | 237 ft | 4 kts | 308° |
| 2026-04-22 07:51 | 50.87585 | 7.12966 | 237 ft | 4 kts | 318° |
| 2026-04-22 07:51 | 50.87578 | 7.12975 | 237 ft | 0 kts | 317° |
| 2026-04-22 07:54 | 50.87579 | 7.12975 | 237 ft | 0 kts | 317° |
| 2026-04-22 07:54 | 50.87600 | 7.12944 | 237 ft | 10 kts | 317° |
| 2026-04-22 07:54 | 50.87668 | 7.12845 | 237 ft | 14 kts | 317° |
| 2026-04-22 07:54 | 50.87740 | 7.12741 | 237 ft | 14 kts | 317° |
| 2026-04-22 07:55 | 50.87813 | 7.12640 | 237 ft | 14 kts | 324° |
| 2026-04-22 07:55 | 50.87906 | 7.12609 | 237 ft | 14 kts | 11° |
| 2026-04-22 07:55 | 50.87979 | 7.12704 | 238 ft | 14 kts | 57° |
| 2026-04-22 07:55 | 50.88006 | 7.12851 | 243 ft | 14 kts | 86° |
| 2026-04-22 07:56 | 50.87986 | 7.12999 | 243 ft | 14 kts | 128° |
| 2026-04-22 07:56 | 50.87969 | 7.13023 | 243 ft | 0 kts | 137° |
| 2026-04-22 07:57 | 50.87936 | 7.13070 | 243 ft | 32 kts | 138° |
| 2026-04-22 07:57 | 50.87578 | 7.13588 | 244 ft | 104 kts | 137° |
| 2026-04-22 07:57 | 50.86893 | 7.14573 | 266 ft | 158 kts | 138° |
| 2026-04-22 07:58 | 50.86046 | 7.15848 | 640 ft | 172 kts | 133° |
| 2026-04-22 07:58 | 50.85158 | 7.17182 | 1218 ft | 179 kts | 136° |
| 2026-04-22 07:58 | 50.84264 | 7.18490 | 2082 ft | 169 kts | 134° |
| 2026-04-22 07:58 | 50.83351 | 7.19777 | 2563 ft | 186 kts | 137° |
| 2026-04-22 07:59 | 50.82302 | 7.21173 | 2834 ft | 208 kts | 136° |
| 2026-04-22 07:59 | 50.81333 | 7.22948 | 3210 ft | 222 kts | 114° |
| 2026-04-22 07:59 | 50.81048 | 7.25378 | 3706 ft | 229 kts | 91° |
| 2026-04-22 07:59 | 50.80989 | 7.27922 | 4436 ft | 235 kts | 93° |
| 2026-04-22 08:00 | 50.80834 | 7.30540 | 5119 ft | 242 kts | 95° |
| 2026-04-22 08:00 | 50.80811 | 7.33251 | 5830 ft | 250 kts | 86° |
| 2026-04-22 08:00 | 50.80933 | 7.36004 | 6699 ft | 252 kts | 85° |
| 2026-04-22 08:00 | 50.81073 | 7.38770 | 7540 ft | 253 kts | 85° |
| 2026-04-22 08:01 | 50.81211 | 7.41555 | 8337 ft | 256 kts | 85° |
| 2026-04-22 08:01 | 50.81345 | 7.44385 | 9109 ft | 260 kts | 85° |
| 2026-04-22 08:01 | 50.81471 | 7.47245 | 9904 ft | 262 kts | 85° |
| 2026-04-22 08:01 | 50.81594 | 7.50142 | 10640 ft | 267 kts | 85° |
| 2026-04-22 08:02 | 50.81717 | 7.53132 | 10970 ft | 287 kts | 85° |
| 2026-04-22 08:02 | 50.81852 | 7.56461 | 11188 ft | 312 kts | 86° |
| 2026-04-22 08:02 | 50.81990 | 7.59970 | 11380 ft | 337 kts | 86° |
| 2026-04-22 08:02 | 50.82133 | 7.63750 | 11931 ft | 350 kts | 86° |
| 2026-04-22 08:03 | 50.82280 | 7.67636 | 12733 ft | 357 kts | 85° |
| 2026-04-22 08:03 | 50.82429 | 7.71587 | 13696 ft | 361 kts | 85° |
| 2026-04-22 08:03 | 50.82577 | 7.75576 | 14330 ft | 366 kts | 85° |
| 2026-04-22 08:03 | 50.82725 | 7.79605 | 14325 ft | 367 kts | 85° |
| 2026-04-22 08:04 | 50.82871 | 7.83641 | 14327 ft | 367 kts | 85° |
| 2026-04-22 08:04 | 50.83015 | 7.87670 | 14331 ft | 366 kts | 85° |
| 2026-04-22 08:04 | 50.83158 | 7.91690 | 14332 ft | 367 kts | 85° |
| 2026-04-22 08:04 | 50.83301 | 7.95721 | 14331 ft | 367 kts | 85° |
| 2026-04-22 08:05 | 50.83441 | 7.99763 | 14344 ft | 368 kts | 86° |
| 2026-04-22 08:05 | 50.83485 | 8.03816 | 14835 ft | 373 kts | 94° |
| 2026-04-22 08:05 | 50.82956 | 8.07888 | 15444 ft | 386 kts | 105° |
| 2026-04-22 08:05 | 50.81897 | 8.11821 | 16063 ft | 398 kts | 117° |
| 2026-04-22 08:06 | 50.80332 | 8.15495 | 16758 ft | 408 kts | 125° |
| 2026-04-22 08:06 | 50.78468 | 8.18913 | 17547 ft | 414 kts | 130° |
| 2026-04-22 08:06 | 50.76370 | 8.22094 | 18344 ft | 421 kts | 136° |
| 2026-04-22 08:06 | 50.74077 | 8.25033 | 18997 ft | 427 kts | 138° |
| 2026-04-22 08:07 | 50.71757 | 8.27922 | 19618 ft | 432 kts | 139° |
| 2026-04-22 08:07 | 50.69349 | 8.30900 | 20275 ft | 436 kts | 138° |
| 2026-04-22 08:07 | 50.66982 | 8.33834 | 20914 ft | 440 kts | 138° |
| 2026-04-22 08:07 | 50.64573 | 8.36836 | 21532 ft | 445 kts | 138° |
| 2026-04-22 08:08 | 50.62129 | 8.39892 | 22162 ft | 450 kts | 138° |
| 2026-04-22 08:08 | 50.59669 | 8.42973 | 22790 ft | 454 kts | 138° |
| 2026-04-22 08:08 | 50.57180 | 8.46090 | 23316 ft | 460 kts | 138° |
| 2026-04-22 08:08 | 50.54653 | 8.49253 | 23713 ft | 469 kts | 139° |
| 2026-04-22 08:09 | 50.52087 | 8.52456 | 24161 ft | 474 kts | 139° |
| 2026-04-22 08:09 | 50.49495 | 8.55687 | 24711 ft | 476 kts | 139° |
| 2026-04-22 08:09 | 50.46893 | 8.58924 | 25278 ft | 478 kts | 139° |
| 2026-04-22 08:09 | 50.44297 | 8.62200 | 25749 ft | 480 kts | 137° |
| 2026-04-22 08:10 | 50.41846 | 8.65754 | 26199 ft | 481 kts | 133° |
| 2026-04-22 08:10 | 50.39433 | 8.69429 | 26638 ft | 485 kts | 133° |
| 2026-04-22 08:10 | 50.37826 | 8.71883 | 26915 ft | 486 kts | 133° |
| 2026-04-22 08:10 | 50.35388 | 8.75597 | 27087 ft | 494 kts | 133° |
| 2026-04-22 08:11 | 50.32895 | 8.79376 | 27174 ft | 503 kts | 133° |
| 2026-04-22 08:11 | 50.30365 | 8.83186 | 27425 ft | 506 kts | 134° |
| 2026-04-22 08:11 | 50.27827 | 8.86989 | 27897 ft | 505 kts | 134° |
| 2026-04-22 08:11 | 50.25300 | 8.90763 | 28488 ft | 501 kts | 134° |
| 2026-04-22 08:12 | 50.22782 | 8.94518 | 29045 ft | 499 kts | 134° |
| 2026-04-22 08:12 | 50.20269 | 8.98264 | 29559 ft | 498 kts | 134° |
| 2026-04-22 08:12 | 50.17933 | 9.01741 | 30040 ft | 497 kts | 134° |
| 2026-04-22 08:12 | 50.15427 | 9.05467 | 30504 ft | 496 kts | 134° |
| 2026-04-22 08:13 | 50.12929 | 9.09177 | 30870 ft | 497 kts | 134° |
| 2026-04-22 08:13 | 50.10426 | 9.12891 | 31170 ft | 498 kts | 134° |
| 2026-04-22 08:13 | 50.07913 | 9.16614 | 31507 ft | 499 kts | 134° |
| 2026-04-22 08:13 | 50.05394 | 9.20337 | 31896 ft | 498 kts | 134° |
| 2026-04-22 08:14 | 50.02881 | 9.24054 | 32124 ft | 501 kts | 134° |
| 2026-04-22 08:14 | 50.00341 | 9.27809 | 32398 ft | 503 kts | 134° |
| 2026-04-22 08:14 | 49.97807 | 9.31554 | 32744 ft | 503 kts | 134° |
| 2026-04-22 08:14 | 49.95265 | 9.35305 | 33073 ft | 503 kts | 134° |
| 2026-04-22 08:15 | 49.92732 | 9.39036 | 33378 ft | 504 kts | 134° |
| 2026-04-22 08:15 | 49.90184 | 9.42784 | 33667 ft | 504 kts | 134° |
| 2026-04-22 08:15 | 49.87660 | 9.46515 | 33282 ft | 505 kts | 135° |
| 2026-04-22 08:15 | 49.85108 | 9.50228 | 34364 ft | 491 kts | 135° |
| 2026-04-22 08:16 | 49.82645 | 9.53826 | 35022 ft | 484 kts | 134° |
| 2026-04-22 08:16 | 49.80231 | 9.57353 | 35320 ft | 485 kts | 134° |
| 2026-04-22 08:16 | 49.75234 | 9.64610 | 35302 ft | 498 kts | 135° |
| 2026-04-22 08:17 | 49.70116 | 9.72006 | 35301 ft | 508 kts | 135° |
| 2026-04-22 08:17 | 49.64902 | 9.79521 | 35301 ft | 516 kts | 135° |
| 2026-04-22 08:18 | 49.59633 | 9.87095 | 35293 ft | 518 kts | 135° |
| 2026-04-22 08:18 | 49.54354 | 9.94662 | 35307 ft | 518 kts | 135° |
| 2026-04-22 08:19 | 49.49186 | 10.02049 | 35302 ft | 518 kts | 135° |
| 2026-04-22 08:19 | 49.43898 | 10.09584 | 35284 ft | 518 kts | 135° |
| 2026-04-22 08:20 | 49.38600 | 10.17110 | 35285 ft | 519 kts | 135° |
| 2026-04-22 08:20 | 49.33298 | 10.24619 | 35305 ft | 519 kts | 135° |
| 2026-04-22 08:21 | 49.28032 | 10.32055 | 35316 ft | 518 kts | 136° |
| 2026-04-22 08:21 | 49.22728 | 10.39536 | 35307 ft | 518 kts | 135° |
| 2026-04-22 08:22 | 49.17534 | 10.47192 | 35311 ft | 518 kts | 134° |
| 2026-04-22 08:22 | 49.12387 | 10.54934 | 35322 ft | 519 kts | 134° |
| 2026-04-22 08:23 | 49.07229 | 10.62627 | 35322 ft | 519 kts | 134° |
| 2026-04-22 08:23 | 49.02045 | 10.70287 | 35313 ft | 520 kts | 134° |
| 2026-04-22 08:24 | 48.96845 | 10.77938 | 35305 ft | 520 kts | 134° |
| 2026-04-22 08:24 | 48.91632 | 10.85588 | 35295 ft | 521 kts | 134° |
| 2026-04-22 08:25 | 48.86409 | 10.93233 | 35289 ft | 521 kts | 134° |
| 2026-04-22 08:25 | 48.81323 | 11.00656 | 35312 ft | 522 kts | 134° |
| 2026-04-22 08:26 | 48.76088 | 11.08271 | 35289 ft | 522 kts | 135° |
| 2026-04-22 08:26 | 48.70860 | 11.15858 | 35291 ft | 524 kts | 135° |
| 2026-04-22 08:27 | 48.65589 | 11.23482 | 35297 ft | 525 kts | 135° |
| 2026-04-22 08:27 | 48.60535 | 11.31476 | 35289 ft | 525 kts | 130° |
| 2026-04-22 08:28 | 48.55650 | 11.39667 | 35294 ft | 525 kts | 130° |
| 2026-04-22 08:28 | 48.50753 | 11.47852 | 35271 ft | 525 kts | 130° |
| 2026-04-22 08:29 | 48.45829 | 11.56004 | 35273 ft | 526 kts | 131° |
| 2026-04-22 08:29 | 48.40907 | 11.64106 | 35294 ft | 528 kts | 131° |
| 2026-04-22 08:30 | 48.35941 | 11.72254 | 35315 ft | 529 kts | 131° |
| 2026-04-22 08:30 | 48.30958 | 11.80407 | 35310 ft | 529 kts | 131° |
| 2026-04-22 08:31 | 48.25969 | 11.88546 | 35286 ft | 529 kts | 131° |
| 2026-04-22 08:32 | 48.18566 | 12.00579 | 35272 ft | 528 kts | 131° |
| 2026-04-22 08:32 | 48.13576 | 12.08658 | 35275 ft | 528 kts | 131° |
| 2026-04-22 08:33 | 48.08580 | 12.16720 | 35256 ft | 527 kts | 131° |
| 2026-04-22 08:33 | 48.03594 | 12.24744 | 35260 ft | 526 kts | 131° |
| 2026-04-22 08:34 | 47.98612 | 12.32735 | 35252 ft | 526 kts | 131° |
| 2026-04-22 08:34 | 47.93607 | 12.40741 | 35255 ft | 528 kts | 131° |
| 2026-04-22 08:35 | 47.88617 | 12.48699 | 35262 ft | 530 kts | 131° |
| 2026-04-22 08:35 | 47.83564 | 12.56733 | 35264 ft | 532 kts | 131° |
| 2026-04-22 08:36 | 47.78495 | 12.64767 | 35263 ft | 533 kts | 131° |
| 2026-04-22 08:36 | 47.73402 | 12.72815 | 35288 ft | 534 kts | 132° |
| 2026-04-22 08:37 | 47.68306 | 12.80846 | 35254 ft | 535 kts | 132° |
| 2026-04-22 08:37 | 47.63077 | 12.88722 | 35259 ft | 536 kts | 134° |
| 2026-04-22 08:38 | 47.57754 | 12.96482 | 35265 ft | 536 kts | 134° |
| 2026-04-22 08:38 | 47.52537 | 13.04116 | 35266 ft | 537 kts | 134° |
| 2026-04-22 08:39 | 47.47274 | 13.11847 | 35259 ft | 536 kts | 134° |
| 2026-04-22 08:39 | 47.41971 | 13.19623 | 35256 ft | 536 kts | 134° |
| 2026-04-22 08:40 | 47.36669 | 13.27366 | 35261 ft | 536 kts | 134° |
| 2026-04-22 08:40 | 47.31680 | 13.35497 | 35262 ft | 534 kts | 126° |
| 2026-04-22 08:41 | 47.27583 | 13.44605 | 35278 ft | 533 kts | 120° |
| 2026-04-22 08:41 | 47.23634 | 13.53750 | 35268 ft | 533 kts | 121° |
| 2026-04-22 08:42 | 47.19619 | 13.62912 | 35245 ft | 533 kts | 121° |
| 2026-04-22 08:42 | 47.15569 | 13.72044 | 35254 ft | 533 kts | 121° |
| 2026-04-22 08:43 | 47.11503 | 13.81166 | 35269 ft | 534 kts | 121° |
| 2026-04-22 08:43 | 47.07448 | 13.90240 | 35254 ft | 534 kts | 122° |
| 2026-04-22 08:44 | 47.03365 | 13.99354 | 35255 ft | 534 kts | 122° |
| 2026-04-22 08:44 | 46.99353 | 14.08279 | 35265 ft | 534 kts | 122° |
| 2026-04-22 08:45 | 46.95263 | 14.17351 | 35247 ft | 534 kts | 122° |
| 2026-04-22 08:45 | 46.91168 | 14.26402 | 35239 ft | 533 kts | 122° |
| 2026-04-22 08:46 | 46.87073 | 14.35423 | 35227 ft | 532 kts | 122° |
| 2026-04-22 08:46 | 46.82971 | 14.44431 | 35254 ft | 533 kts | 122° |
| 2026-04-22 08:47 | 46.78854 | 14.53443 | 35237 ft | 533 kts | 122° |
| 2026-04-22 08:47 | 46.74733 | 14.62434 | 35218 ft | 533 kts | 122° |
| 2026-04-22 08:48 | 46.70611 | 14.71400 | 35225 ft | 532 kts | 122° |
| 2026-04-22 08:48 | 46.66477 | 14.80366 | 35224 ft | 532 kts | 122° |
| 2026-04-22 08:49 | 46.62344 | 14.89300 | 35217 ft | 532 kts | 123° |
| 2026-04-22 08:49 | 46.57774 | 14.97685 | 35212 ft | 533 kts | 131° |
| 2026-04-22 08:50 | 46.52864 | 15.05505 | 35211 ft | 534 kts | 131° |
| 2026-04-22 08:50 | 46.47858 | 15.13483 | 35217 ft | 535 kts | 131° |
| 2026-04-22 08:51 | 46.42874 | 15.21498 | 35211 ft | 535 kts | 131° |
| 2026-04-22 08:51 | 46.37900 | 15.29506 | 35211 ft | 535 kts | 131° |
| 2026-04-22 08:52 | 46.32910 | 15.37511 | 35190 ft | 536 kts | 131° |
| 2026-04-22 08:52 | 46.27934 | 15.45461 | 35211 ft | 536 kts | 131° |
| 2026-04-22 08:53 | 46.22923 | 15.53446 | 35207 ft | 537 kts | 131° |
| 2026-04-22 08:53 | 46.17899 | 15.61430 | 35208 ft | 537 kts | 132° |
| 2026-04-22 08:54 | 46.12609 | 15.69032 | 35221 ft | 537 kts | 136° |
| 2026-04-22 08:54 | 46.07169 | 15.76419 | 35191 ft | 538 kts | 137° |
| 2026-04-22 08:55 | 46.01719 | 15.83811 | 35206 ft | 539 kts | 136° |
| 2026-04-22 08:55 | 45.96307 | 15.91186 | 35216 ft | 541 kts | 136° |
| 2026-04-22 08:56 | 45.90825 | 15.98659 | 35229 ft | 542 kts | 137° |
| 2026-04-22 08:56 | 45.85429 | 16.05993 | 35220 ft | 542 kts | 137° |
| 2026-04-22 08:57 | 45.79982 | 16.13370 | 35197 ft | 542 kts | 137° |
| 2026-04-22 08:57 | 45.74496 | 16.20780 | 35209 ft | 542 kts | 137° |
| 2026-04-22 08:58 | 45.69007 | 16.28170 | 35212 ft | 542 kts | 137° |
| 2026-04-22 08:58 | 45.64441 | 16.34303 | 35202 ft | 542 kts | 137° |
| 2026-04-22 08:59 | 45.58946 | 16.41664 | 35197 ft | 541 kts | 137° |
| 2026-04-22 08:59 | 45.53449 | 16.49008 | 35196 ft | 541 kts | 137° |
| 2026-04-22 09:00 | 45.47952 | 16.56330 | 35203 ft | 541 kts | 137° |
| 2026-04-22 09:00 | 45.42457 | 16.63629 | 35197 ft | 540 kts | 137° |
| 2026-04-22 09:01 | 45.36958 | 16.70915 | 35195 ft | 540 kts | 138° |
| 2026-04-22 09:01 | 45.31455 | 16.78185 | 35168 ft | 540 kts | 138° |
| 2026-04-22 09:02 | 45.25948 | 16.85441 | 35187 ft | 540 kts | 138° |
| 2026-04-22 09:02 | 45.20425 | 16.92697 | 35187 ft | 541 kts | 138° |
| 2026-04-22 09:03 | 45.14880 | 16.99962 | 35185 ft | 542 kts | 138° |
| 2026-04-22 09:03 | 45.09447 | 17.07064 | 35177 ft | 543 kts | 138° |
| 2026-04-22 09:04 | 45.03905 | 17.14341 | 35175 ft | 544 kts | 137° |
| 2026-04-22 09:04 | 44.98490 | 17.21773 | 35214 ft | 545 kts | 137° |
| 2026-04-22 09:05 | 44.93083 | 17.29277 | 35210 ft | 545 kts | 137° |
| 2026-04-22 09:05 | 44.87651 | 17.36751 | 35214 ft | 545 kts | 137° |
| 2026-04-22 09:06 | 44.82206 | 17.44183 | 35207 ft | 545 kts | 137° |
| 2026-04-22 09:06 | 44.76737 | 17.51616 | 35192 ft | 546 kts | 137° |
| 2026-04-22 09:07 | 44.71296 | 17.58991 | 35181 ft | 546 kts | 137° |
| 2026-04-22 09:07 | 44.65817 | 17.66403 | 35191 ft | 547 kts | 138° |
| 2026-04-22 09:08 | 44.60331 | 17.73806 | 35163 ft | 547 kts | 138° |
| 2026-04-22 09:08 | 44.54838 | 17.81196 | 35153 ft | 547 kts | 138° |
| 2026-04-22 09:09 | 44.49330 | 17.88586 | 35162 ft | 548 kts | 138° |
| 2026-04-22 09:09 | 44.43809 | 17.95972 | 35168 ft | 550 kts | 138° |
| 2026-04-22 09:10 | 44.38354 | 18.03251 | 35163 ft | 550 kts | 138° |
| 2026-04-22 09:10 | 44.32813 | 18.10625 | 35158 ft | 550 kts | 138° |
| 2026-04-22 09:11 | 44.27265 | 18.17988 | 35155 ft | 551 kts | 139° |
| 2026-04-22 09:11 | 44.21731 | 18.25309 | 35150 ft | 552 kts | 139° |
| 2026-04-22 09:12 | 44.16119 | 18.32718 | 35137 ft | 553 kts | 139° |
| 2026-04-22 09:12 | 44.10566 | 18.40029 | 35134 ft | 553 kts | 139° |
| 2026-04-22 09:13 | 44.04971 | 18.47373 | 35110 ft | 553 kts | 139° |
| 2026-04-22 09:13 | 43.99384 | 18.54684 | 35121 ft | 554 kts | 139° |
| 2026-04-22 09:14 | 43.93767 | 18.62015 | 35128 ft | 554 kts | 139° |
| 2026-04-22 09:14 | 43.88146 | 18.69334 | 35125 ft | 554 kts | 139° |
| 2026-04-22 09:15 | 43.82515 | 18.76647 | 35111 ft | 554 kts | 140° |
| 2026-04-22 09:15 | 43.76882 | 18.83942 | 35096 ft | 555 kts | 140° |
| 2026-04-22 09:16 | 43.71234 | 18.91236 | 35090 ft | 556 kts | 140° |
| 2026-04-22 09:16 | 43.65575 | 18.98524 | 35092 ft | 556 kts | 140° |
| 2026-04-22 09:17 | 43.60011 | 19.05672 | 35095 ft | 557 kts | 140° |
| 2026-04-22 09:17 | 43.54372 | 19.12900 | 35076 ft | 557 kts | 140° |
| 2026-04-22 09:18 | 43.48506 | 19.19873 | 35097 ft | 556 kts | 144° |
| 2026-04-22 09:18 | 43.42512 | 19.26605 | 35090 ft | 556 kts | 144° |
| 2026-04-22 09:19 | 43.36507 | 19.33336 | 35086 ft | 557 kts | 144° |
| 2026-04-22 09:19 | 43.30515 | 19.40091 | 35042 ft | 557 kts | 144° |
| 2026-04-22 09:20 | 43.24528 | 19.46845 | 35090 ft | 558 kts | 144° |
| 2026-04-22 09:20 | 43.18516 | 19.53602 | 35081 ft | 559 kts | 144° |
| 2026-04-22 09:21 | 43.12536 | 19.60304 | 35079 ft | 559 kts | 144° |
| 2026-04-22 09:21 | 43.06518 | 19.67031 | 35082 ft | 558 kts | 144° |
| 2026-04-22 09:22 | 43.00501 | 19.73738 | 35069 ft | 557 kts | 144° |
| 2026-04-22 09:22 | 42.94505 | 19.80405 | 35052 ft | 558 kts | 145° |
| 2026-04-22 09:23 | 42.88487 | 19.87081 | 35068 ft | 556 kts | 145° |
| 2026-04-22 09:23 | 42.82466 | 19.93743 | 35056 ft | 557 kts | 145° |
| 2026-04-22 09:24 | 42.76593 | 20.00286 | 35065 ft | 558 kts | 142° |
| 2026-04-22 09:24 | 42.71194 | 20.07849 | 35054 ft | 564 kts | 132° |
| 2026-04-22 09:25 | 42.66261 | 20.16151 | 35046 ft | 565 kts | 131° |
| 2026-04-22 09:25 | 42.61314 | 20.24442 | 35064 ft | 565 kts | 132° |
| 2026-04-22 09:26 | 42.56312 | 20.32686 | 35048 ft | 565 kts | 133° |
| 2026-04-22 09:26 | 42.51296 | 20.40889 | 35057 ft | 565 kts | 133° |
| 2026-04-22 09:27 | 42.46273 | 20.49083 | 35060 ft | 565 kts | 133° |
| 2026-04-22 09:27 | 42.41252 | 20.57262 | 35070 ft | 565 kts | 133° |
| 2026-04-22 09:28 | 42.36229 | 20.65423 | 35061 ft | 565 kts | 133° |
| 2026-04-22 09:28 | 42.31201 | 20.73570 | 35065 ft | 564 kts | 133° |
| 2026-04-22 09:29 | 42.26172 | 20.81696 | 35079 ft | 563 kts | 134° |
| 2026-04-22 09:29 | 42.21134 | 20.89815 | 35046 ft | 564 kts | 135° |
| 2026-04-22 09:30 | 42.16123 | 20.97868 | 35077 ft | 563 kts | 135° |
| 2026-04-22 09:30 | 42.11178 | 21.05717 | 35065 ft | 561 kts | 137° |
| 2026-04-22 09:31 | 42.05621 | 21.13015 | 35076 ft | 556 kts | 142° |
| 2026-04-22 09:31 | 41.99949 | 21.20063 | 35047 ft | 558 kts | 143° |
| 2026-04-22 09:32 | 41.94261 | 21.27165 | 35081 ft | 560 kts | 142° |
| 2026-04-22 09:32 | 41.88568 | 21.34330 | 35057 ft | 562 kts | 142° |
| 2026-04-22 09:33 | 41.82862 | 21.41520 | 35055 ft | 563 kts | 142° |
| 2026-04-22 09:33 | 41.77143 | 21.48700 | 35005 ft | 564 kts | 142° |
| 2026-04-22 09:34 | 41.71413 | 21.55868 | 35049 ft | 562 kts | 142° |
| 2026-04-22 09:34 | 41.65699 | 21.63000 | 35069 ft | 562 kts | 142° |
| 2026-04-22 09:35 | 41.57147 | 21.73635 | 35061 ft | 563 kts | 142° |
| 2026-04-22 09:35 | 41.51411 | 21.80747 | 35068 ft | 562 kts | 142° |
| 2026-04-22 09:36 | 41.45685 | 21.87830 | 35053 ft | 560 kts | 142° |
| 2026-04-22 09:36 | 41.39968 | 21.94880 | 35075 ft | 559 kts | 142° |
| 2026-04-22 09:37 | 41.34405 | 22.01727 | 35072 ft | 558 kts | 142° |
| 2026-04-22 09:37 | 41.28690 | 22.08745 | 35060 ft | 559 kts | 142° |
| 2026-04-22 09:38 | 41.22978 | 22.15740 | 35030 ft | 558 kts | 142° |
| 2026-04-22 09:38 | 41.17270 | 22.22715 | 35039 ft | 557 kts | 142° |
| 2026-04-22 09:39 | 41.11384 | 22.29336 | 35067 ft | 554 kts | 146° |
| 2026-04-22 09:39 | 41.05418 | 22.35685 | 35039 ft | 554 kts | 147° |
| 2026-04-22 09:40 | 40.99421 | 22.42062 | 35054 ft | 554 kts | 146° |
| 2026-04-22 09:40 | 40.93406 | 22.48496 | 35035 ft | 556 kts | 146° |
| 2026-04-22 09:41 | 40.87403 | 22.54923 | 35038 ft | 555 kts | 146° |
| 2026-04-22 09:41 | 40.81396 | 22.61336 | 35037 ft | 554 kts | 146° |
| 2026-04-22 09:42 | 40.75405 | 22.67711 | 35049 ft | 553 kts | 146° |
| 2026-04-22 09:42 | 40.69401 | 22.74083 | 35036 ft | 553 kts | 146° |
| 2026-04-22 09:43 | 40.63447 | 22.80388 | 35042 ft | 552 kts | 146° |
| 2026-04-22 09:43 | 40.57468 | 22.86705 | 35048 ft | 551 kts | 146° |
| 2026-04-22 09:44 | 40.51485 | 22.93013 | 35057 ft | 552 kts | 146° |
| 2026-04-22 09:44 | 40.45479 | 22.99330 | 35051 ft | 554 kts | 146° |
| 2026-04-22 09:45 | 40.40680 | 23.04343 | 35045 ft | 553 kts | 146° |
| 2026-04-22 09:45 | 40.34645 | 23.10608 | 35043 ft | 552 kts | 147° |
| 2026-04-22 09:46 | 40.28629 | 23.16842 | 35051 ft | 550 kts | 147° |
| 2026-04-22 09:46 | 40.22621 | 23.23059 | 35037 ft | 549 kts | 147° |
| 2026-04-22 09:47 | 40.16636 | 23.29239 | 35052 ft | 548 kts | 146° |
| 2026-04-22 09:47 | 40.10646 | 23.35409 | 35040 ft | 549 kts | 146° |
| 2026-04-22 09:48 | 40.04682 | 23.41538 | 35032 ft | 549 kts | 146° |
| 2026-04-22 09:48 | 39.98700 | 23.47674 | 35043 ft | 549 kts | 146° |
| 2026-04-22 09:49 | 39.92677 | 23.53837 | 35005 ft | 548 kts | 146° |
| 2026-04-22 09:49 | 39.86676 | 23.59964 | 35025 ft | 547 kts | 146° |
| 2026-04-22 09:50 | 39.80675 | 23.66075 | 35037 ft | 548 kts | 146° |
| 2026-04-22 09:50 | 39.74667 | 23.72181 | 35034 ft | 548 kts | 146° |
| 2026-04-22 09:51 | 39.68657 | 23.78274 | 35025 ft | 548 kts | 146° |
| 2026-04-22 09:51 | 39.62681 | 23.84320 | 35020 ft | 546 kts | 146° |
| 2026-04-22 09:52 | 39.56690 | 23.90368 | 35018 ft | 545 kts | 146° |
| 2026-04-22 09:52 | 39.50702 | 23.96399 | 35018 ft | 544 kts | 146° |
| 2026-04-22 09:53 | 39.44856 | 24.02272 | 35010 ft | 544 kts | 146° |
| 2026-04-22 09:53 | 39.38873 | 24.08270 | 35000 ft | 543 kts | 146° |
| 2026-04-22 09:54 | 39.32894 | 24.14251 | 35002 ft | 544 kts | 146° |
| 2026-04-22 09:54 | 39.26900 | 24.20234 | 35004 ft | 544 kts | 146° |
| 2026-04-22 09:55 | 39.20912 | 24.26199 | 34997 ft | 544 kts | 146° |
| 2026-04-22 09:55 | 39.14920 | 24.32154 | 34997 ft | 544 kts | 146° |
| 2026-04-22 09:56 | 39.08912 | 24.38112 | 34989 ft | 544 kts | 146° |
| 2026-04-22 09:56 | 39.02947 | 24.44016 | 34980 ft | 544 kts | 146° |
| 2026-04-22 09:57 | 38.96962 | 24.49923 | 34989 ft | 543 kts | 147° |
| 2026-04-22 09:57 | 38.90843 | 24.55601 | 34980 ft | 542 kts | 149° |
| 2026-04-22 09:58 | 38.84650 | 24.61114 | 34975 ft | 541 kts | 149° |
| 2026-04-22 09:58 | 38.78477 | 24.66630 | 34981 ft | 541 kts | 149° |
| 2026-04-22 09:59 | 38.72329 | 24.72170 | 34978 ft | 541 kts | 149° |
| 2026-04-22 09:59 | 38.66166 | 24.77731 | 34973 ft | 541 kts | 149° |
| 2026-04-22 10:00 | 38.60062 | 24.83227 | 34947 ft | 541 kts | 149° |
| 2026-04-22 10:00 | 38.53904 | 24.88755 | 34973 ft | 540 kts | 149° |
| 2026-04-22 10:01 | 38.47734 | 24.94279 | 34973 ft | 541 kts | 149° |
| 2026-04-22 10:01 | 38.41567 | 24.99789 | 34969 ft | 541 kts | 149° |
| 2026-04-22 10:02 | 38.35660 | 25.05057 | 34967 ft | 541 kts | 149° |
| 2026-04-22 10:02 | 38.29495 | 25.10544 | 34963 ft | 540 kts | 149° |
| 2026-04-22 10:03 | 38.23364 | 25.15989 | 34964 ft | 539 kts | 149° |
| 2026-04-22 10:03 | 38.17218 | 25.21435 | 34964 ft | 539 kts | 149° |
| 2026-04-22 10:04 | 38.11045 | 25.26893 | 34964 ft | 539 kts | 149° |
| 2026-04-22 10:04 | 38.04888 | 25.32327 | 34950 ft | 539 kts | 149° |
| 2026-04-22 10:05 | 37.98760 | 25.37723 | 34960 ft | 538 kts | 149° |
| 2026-04-22 10:05 | 37.92647 | 25.43096 | 34959 ft | 537 kts | 149° |
| 2026-04-22 10:06 | 37.86463 | 25.48519 | 34975 ft | 537 kts | 149° |
| 2026-04-22 10:06 | 37.80339 | 25.53879 | 34962 ft | 537 kts | 149° |
| 2026-04-22 10:07 | 37.74200 | 25.59240 | 34959 ft | 537 kts | 149° |
| 2026-04-22 10:07 | 37.68046 | 25.64604 | 34963 ft | 537 kts | 149° |
| 2026-04-22 10:08 | 37.61893 | 25.69956 | 34959 ft | 537 kts | 149° |
| 2026-04-22 10:08 | 37.55729 | 25.75306 | 34957 ft | 537 kts | 149° |
| 2026-04-22 10:09 | 37.49607 | 25.80610 | 34964 ft | 537 kts | 149° |
| 2026-04-22 10:09 | 37.43434 | 25.85946 | 34967 ft | 537 kts | 150° |
| 2026-04-22 10:10 | 37.37281 | 25.91255 | 34968 ft | 537 kts | 150° |
| 2026-04-22 10:10 | 37.31118 | 25.96561 | 34966 ft | 537 kts | 150° |
| 2026-04-22 10:11 | 37.25191 | 26.01655 | 34949 ft | 536 kts | 150° |
| 2026-04-22 10:11 | 37.19063 | 26.06911 | 34969 ft | 536 kts | 150° |
| 2026-04-22 10:12 | 37.12875 | 26.12208 | 34971 ft | 535 kts | 150° |
| 2026-04-22 10:12 | 37.06759 | 26.17434 | 34975 ft | 535 kts | 150° |
| 2026-04-22 10:13 | 37.00704 | 26.22872 | 34977 ft | 539 kts | 143° |
| 2026-04-22 10:13 | 36.95405 | 26.29524 | 34974 ft | 543 kts | 133° |
| 2026-04-22 10:14 | 36.90941 | 26.37167 | 34988 ft | 545 kts | 127° |
| 2026-04-22 10:14 | 36.86640 | 26.44972 | 34989 ft | 545 kts | 127° |
| 2026-04-22 10:15 | 36.82312 | 26.52747 | 34994 ft | 545 kts | 127° |
| 2026-04-22 10:15 | 36.77952 | 26.60473 | 34996 ft | 545 kts | 128° |
| 2026-04-22 10:16 | 36.73558 | 26.68209 | 34999 ft | 545 kts | 128° |
| 2026-04-22 10:16 | 36.69170 | 26.75918 | 35008 ft | 545 kts | 128° |
| 2026-04-22 10:17 | 36.64788 | 26.83609 | 35011 ft | 545 kts | 128° |
| 2026-04-22 10:17 | 36.60422 | 26.91256 | 35001 ft | 544 kts | 128° |
| 2026-04-22 10:18 | 36.56028 | 26.98936 | 35004 ft | 544 kts | 128° |
| 2026-04-22 10:18 | 36.51706 | 27.06472 | 35003 ft | 543 kts | 128° |
| 2026-04-22 10:19 | 36.47306 | 27.14126 | 34999 ft | 543 kts | 128° |
| 2026-04-22 10:19 | 36.42908 | 27.21760 | 35005 ft | 543 kts | 128° |
| 2026-04-22 10:20 | 36.38505 | 27.29386 | 34996 ft | 543 kts | 128° |
| 2026-04-22 10:20 | 36.34100 | 27.36997 | 34994 ft | 542 kts | 128° |
| 2026-04-22 10:21 | 36.29721 | 27.44548 | 34994 ft | 542 kts | 128° |
| 2026-04-22 10:21 | 36.25305 | 27.52145 | 34996 ft | 542 kts | 128° |
| 2026-04-22 10:22 | 36.20893 | 27.59717 | 34988 ft | 541 kts | 128° |
| 2026-04-22 10:22 | 36.16485 | 27.67270 | 34998 ft | 541 kts | 128° |
| 2026-04-22 10:23 | 36.12075 | 27.74807 | 35006 ft | 541 kts | 128° |
| 2026-04-22 10:23 | 36.07680 | 27.82302 | 35016 ft | 541 kts | 128° |
| 2026-04-22 10:24 | 36.03250 | 27.89839 | 35017 ft | 541 kts | 128° |
| 2026-04-22 10:24 | 35.98829 | 27.97345 | 35020 ft | 541 kts | 128° |
| 2026-04-22 10:25 | 35.94464 | 28.04739 | 35019 ft | 541 kts | 128° |
| 2026-04-22 10:25 | 35.90027 | 28.12242 | 35023 ft | 541 kts | 128° |
| 2026-04-22 10:26 | 35.85588 | 28.19729 | 35021 ft | 540 kts | 128° |
| 2026-04-22 10:26 | 35.81178 | 28.27153 | 35011 ft | 540 kts | 128° |
| 2026-04-22 10:27 | 35.76737 | 28.34613 | 35025 ft | 539 kts | 128° |
| 2026-04-22 10:27 | 35.72295 | 28.42057 | 35027 ft | 539 kts | 128° |
| 2026-04-22 10:28 | 35.67853 | 28.49486 | 35028 ft | 539 kts | 128° |
| 2026-04-22 10:28 | 35.63406 | 28.56908 | 35027 ft | 538 kts | 128° |
| 2026-04-22 10:29 | 35.58957 | 28.64316 | 35027 ft | 538 kts | 128° |
| 2026-04-22 10:29 | 35.54510 | 28.71706 | 35026 ft | 538 kts | 128° |
| 2026-04-22 10:30 | 35.50088 | 28.79039 | 35035 ft | 538 kts | 128° |
| 2026-04-22 10:30 | 35.45632 | 28.86412 | 35015 ft | 537 kts | 128° |
| 2026-04-22 10:31 | 35.41174 | 28.93774 | 35033 ft | 537 kts | 128° |
| 2026-04-22 10:31 | 35.36800 | 29.00983 | 35034 ft | 537 kts | 128° |
| 2026-04-22 10:32 | 35.32343 | 29.08312 | 35032 ft | 536 kts | 129° |
| 2026-04-22 10:32 | 35.28630 | 29.14406 | 35036 ft | 536 kts | 129° |
| 2026-04-22 10:33 | 35.24164 | 29.21722 | 35039 ft | 536 kts | 129° |
| 2026-04-22 10:33 | 35.19700 | 29.29020 | 35035 ft | 536 kts | 129° |
| 2026-04-22 10:34 | 35.15232 | 29.36308 | 35036 ft | 536 kts | 129° |
| 2026-04-22 10:34 | 35.10761 | 29.43587 | 35032 ft | 536 kts | 129° |
| 2026-04-22 10:35 | 35.06283 | 29.50863 | 35026 ft | 536 kts | 129° |
| 2026-04-22 10:35 | 35.01798 | 29.58133 | 35027 ft | 535 kts | 129° |
| 2026-04-22 10:36 | 34.97318 | 29.65383 | 35039 ft | 535 kts | 129° |
| 2026-04-22 10:36 | 34.92832 | 29.72625 | 35038 ft | 536 kts | 129° |
| 2026-04-22 10:37 | 34.86117 | 29.83441 | 35038 ft | 536 kts | 129° |
| 2026-04-22 10:38 | 34.81615 | 29.90676 | 35035 ft | 536 kts | 129° |
| 2026-04-22 10:38 | 34.77110 | 29.97901 | 35036 ft | 536 kts | 129° |
| 2026-04-22 10:39 | 34.72989 | 30.05310 | 35036 ft | 537 kts | 123° |
| 2026-04-22 10:39 | 34.69091 | 30.13066 | 35034 ft | 537 kts | 123° |
| 2026-04-22 10:40 | 34.65200 | 30.20818 | 35027 ft | 537 kts | 123° |
| 2026-04-22 10:40 | 34.61277 | 30.28542 | 35032 ft | 537 kts | 123° |
| 2026-04-22 10:41 | 34.57335 | 30.36245 | 35041 ft | 537 kts | 123° |
| 2026-04-22 10:41 | 34.53384 | 30.43946 | 35038 ft | 537 kts | 124° |
| 2026-04-22 10:42 | 34.49431 | 30.51637 | 35037 ft | 537 kts | 124° |
| 2026-04-22 10:42 | 34.45476 | 30.59320 | 35041 ft | 537 kts | 124° |
| 2026-04-22 10:43 | 34.41542 | 30.66947 | 35042 ft | 537 kts | 124° |
| 2026-04-22 10:43 | 34.37577 | 30.74615 | 35043 ft | 537 kts | 124° |
| 2026-04-22 10:44 | 34.33609 | 30.82276 | 35043 ft | 537 kts | 124° |
| 2026-04-22 10:44 | 34.29635 | 30.89929 | 35039 ft | 537 kts | 124° |
| 2026-04-22 10:45 | 34.25657 | 30.97574 | 35033 ft | 537 kts | 124° |
| 2026-04-22 10:45 | 34.21760 | 31.05047 | 35040 ft | 538 kts | 124° |
| 2026-04-22 10:46 | 34.17766 | 31.12690 | 35042 ft | 538 kts | 124° |
| 2026-04-22 10:46 | 34.13762 | 31.20336 | 35043 ft | 539 kts | 124° |
| 2026-04-22 10:47 | 34.09744 | 31.27992 | 35053 ft | 540 kts | 124° |
| 2026-04-22 10:47 | 34.05721 | 31.35644 | 35049 ft | 540 kts | 124° |
| 2026-04-22 10:48 | 34.01694 | 31.43284 | 35047 ft | 540 kts | 124° |
| 2026-04-22 10:48 | 33.97672 | 31.50900 | 35046 ft | 539 kts | 124° |
| 2026-04-22 10:49 | 33.93633 | 31.58531 | 35050 ft | 539 kts | 124° |
| 2026-04-22 10:49 | 33.89599 | 31.66138 | 35050 ft | 539 kts | 124° |
| 2026-04-22 10:50 | 33.85566 | 31.73726 | 35052 ft | 538 kts | 124° |
| 2026-04-22 10:50 | 33.81526 | 31.81313 | 35048 ft | 538 kts | 124° |
| 2026-04-22 10:51 | 33.77487 | 31.88881 | 35045 ft | 538 kts | 124° |
| 2026-04-22 10:51 | 33.73441 | 31.96444 | 35049 ft | 537 kts | 124° |
| 2026-04-22 10:52 | 33.69455 | 32.03883 | 35029 ft | 537 kts | 125° |
| 2026-04-22 10:52 | 33.65406 | 32.11423 | 35044 ft | 537 kts | 125° |
| 2026-04-22 10:53 | 33.61379 | 32.18905 | 35053 ft | 537 kts | 125° |
| 2026-04-22 10:53 | 33.57322 | 32.26429 | 35042 ft | 537 kts | 125° |
| 2026-04-22 10:54 | 33.53259 | 32.33948 | 35051 ft | 537 kts | 125° |
| 2026-04-22 10:54 | 33.49184 | 32.41473 | 35048 ft | 537 kts | 125° |
| 2026-04-22 10:55 | 33.45110 | 32.48982 | 35045 ft | 537 kts | 126° |
| 2026-04-22 10:55 | 33.41027 | 32.56491 | 35060 ft | 537 kts | 126° |
| 2026-04-22 10:56 | 33.36948 | 32.63979 | 35051 ft | 537 kts | 126° |
| 2026-04-22 10:56 | 33.32889 | 32.71414 | 35049 ft | 537 kts | 126° |
| 2026-04-22 10:57 | 33.28802 | 32.78884 | 35034 ft | 536 kts | 126° |
| 2026-04-22 10:57 | 33.24772 | 32.86243 | 34970 ft | 523 kts | 126° |
| 2026-04-22 10:58 | 33.20824 | 32.93434 | 34738 ft | 514 kts | 126° |
| 2026-04-22 10:58 | 33.18864 | 32.96997 | 34498 ft | 513 kts | 126° |
| 2026-04-22 10:58 | 33.16973 | 33.00429 | 34220 ft | 514 kts | 126° |
| 2026-04-22 10:58 | 33.15003 | 33.04001 | 33885 ft | 514 kts | 126° |
| 2026-04-22 10:59 | 33.13036 | 33.07564 | 33536 ft | 515 kts | 126° |
| 2026-04-22 10:59 | 33.11065 | 33.11134 | 33157 ft | 515 kts | 126° |
| 2026-04-22 10:59 | 33.09095 | 33.14699 | 32777 ft | 515 kts | 126° |
| 2026-04-22 10:59 | 33.07117 | 33.18274 | 32378 ft | 516 kts | 126° |
| 2026-04-22 11:00 | 33.05141 | 33.21844 | 31983 ft | 516 kts | 126° |
| 2026-04-22 11:00 | 33.03189 | 33.25369 | 31567 ft | 517 kts | 126° |
| 2026-04-22 11:00 | 33.01207 | 33.28941 | 31131 ft | 517 kts | 126° |
| 2026-04-22 11:00 | 32.99225 | 33.32508 | 30687 ft | 517 kts | 126° |
| 2026-04-22 11:01 | 32.97237 | 33.36085 | 30279 ft | 517 kts | 126° |
| 2026-04-22 11:01 | 32.95259 | 33.39640 | 29642 ft | 513 kts | 126° |
| 2026-04-22 11:01 | 32.93298 | 33.43165 | 28962 ft | 506 kts | 126° |
| 2026-04-22 11:01 | 32.91367 | 33.46632 | 28323 ft | 499 kts | 126° |
| 2026-04-22 11:02 | 32.89457 | 33.50057 | 27699 ft | 493 kts | 126° |
| 2026-04-22 11:02 | 32.87570 | 33.53436 | 27074 ft | 487 kts | 126° |
| 2026-04-22 11:02 | 32.85706 | 33.56771 | 26469 ft | 482 kts | 126° |
| 2026-04-22 11:02 | 32.83859 | 33.60069 | 25866 ft | 476 kts | 126° |
| 2026-04-22 11:03 | 32.81908 | 33.63224 | 25272 ft | 470 kts | 131° |
| 2026-04-22 11:03 | 32.79732 | 33.66080 | 24705 ft | 463 kts | 136° |
| 2026-04-22 11:03 | 32.77519 | 33.68770 | 24138 ft | 459 kts | 137° |
| 2026-04-22 11:03 | 32.75288 | 33.71470 | 23539 ft | 456 kts | 137° |
| 2026-04-22 11:04 | 32.73083 | 33.74151 | 22854 ft | 452 kts | 136° |
| 2026-04-22 11:04 | 32.70905 | 33.76817 | 22271 ft | 448 kts | 136° |
| 2026-04-22 11:04 | 32.68751 | 33.79464 | 21701 ft | 443 kts | 136° |
| 2026-04-22 11:04 | 32.66620 | 33.82088 | 21141 ft | 439 kts | 136° |
| 2026-04-22 11:05 | 32.64513 | 33.84683 | 20592 ft | 435 kts | 136° |
| 2026-04-22 11:05 | 32.62422 | 33.87257 | 20053 ft | 431 kts | 136° |
| 2026-04-22 11:05 | 32.60429 | 33.89706 | 19539 ft | 436 kts | 136° |
| 2026-04-22 11:05 | 32.58257 | 33.92368 | 19060 ft | 465 kts | 135° |
| 2026-04-22 11:06 | 32.56064 | 33.95060 | 18624 ft | 454 kts | 135° |
| 2026-04-22 11:06 | 32.53937 | 33.97700 | 17898 ft | 433 kts | 135° |
| 2026-04-22 11:06 | 32.51965 | 34.00166 | 17149 ft | 416 kts | 135° |
| 2026-04-22 11:06 | 32.50028 | 34.02593 | 16642 ft | 396 kts | 135° |
| 2026-04-22 11:07 | 32.48154 | 34.04933 | 16111 ft | 389 kts | 135° |
| 2026-04-22 11:07 | 32.46288 | 34.07256 | 15621 ft | 390 kts | 135° |
| 2026-04-22 11:07 | 32.44429 | 34.09568 | 15124 ft | 395 kts | 134° |
| 2026-04-22 11:07 | 32.42798 | 34.12253 | 14590 ft | 404 kts | 116° |
| 2026-04-22 11:08 | 32.42020 | 34.15374 | 14087 ft | 399 kts | 101° |
| 2026-04-22 11:08 | 32.41514 | 34.18595 | 13535 ft | 397 kts | 101° |
| 2026-04-22 11:08 | 32.40982 | 34.21788 | 12966 ft | 393 kts | 102° |
| 2026-04-22 11:08 | 32.40432 | 34.24940 | 12446 ft | 389 kts | 102° |
| 2026-04-22 11:09 | 32.39875 | 34.28052 | 11937 ft | 385 kts | 102° |
| 2026-04-22 11:09 | 32.39319 | 34.31131 | 11436 ft | 380 kts | 102° |
| 2026-04-22 11:09 | 32.38767 | 34.34180 | 10976 ft | 376 kts | 103° |
| 2026-04-22 11:09 | 32.38230 | 34.37147 | 10828 ft | 362 kts | 103° |
| 2026-04-22 11:10 | 32.37712 | 34.40006 | 10667 ft | 350 kts | 103° |
| 2026-04-22 11:10 | 32.37211 | 34.42771 | 10510 ft | 338 kts | 103° |
| 2026-04-22 11:10 | 32.36726 | 34.45443 | 10371 ft | 326 kts | 103° |
| 2026-04-22 11:10 | 32.36258 | 34.48019 | 10236 ft | 315 kts | 103° |
| 2026-04-22 11:11 | 32.35804 | 34.50512 | 10106 ft | 304 kts | 103° |
| 2026-04-22 11:11 | 32.35334 | 34.52895 | 9965 ft | 292 kts | 109° |
| 2026-04-22 11:11 | 32.34616 | 34.55113 | 9644 ft | 287 kts | 115° |
| 2026-04-22 11:11 | 32.33802 | 34.57245 | 9327 ft | 282 kts | 116° |
| 2026-04-22 11:12 | 32.32993 | 34.59345 | 9025 ft | 278 kts | 115° |
| 2026-04-22 11:12 | 32.32218 | 34.61395 | 8730 ft | 273 kts | 115° |
| 2026-04-22 11:12 | 32.31476 | 34.63389 | 8450 ft | 270 kts | 115° |
| 2026-04-22 11:12 | 32.30740 | 34.65395 | 8175 ft | 271 kts | 114° |
| 2026-04-22 11:13 | 32.29985 | 34.67463 | 7899 ft | 277 kts | 114° |
| 2026-04-22 11:13 | 32.29217 | 34.69570 | 7602 ft | 280 kts | 114° |
| 2026-04-22 11:13 | 32.28452 | 34.71673 | 7288 ft | 277 kts | 114° |
| 2026-04-22 11:13 | 32.27694 | 34.73755 | 6965 ft | 274 kts | 114° |
| 2026-04-22 11:14 | 32.26945 | 34.75809 | 6707 ft | 269 kts | 114° |
| 2026-04-22 11:14 | 32.26217 | 34.77802 | 6554 ft | 259 kts | 114° |
| 2026-04-22 11:14 | 32.25512 | 34.79733 | 6245 ft | 254 kts | 113° |
| 2026-04-22 11:14 | 32.24928 | 34.81671 | 5909 ft | 249 kts | 107° |
| 2026-04-22 11:15 | 32.24446 | 34.83602 | 5570 ft | 237 kts | 106° |
| 2026-04-22 11:15 | 32.23998 | 34.85391 | 5248 ft | 220 kts | 106° |
| 2026-04-22 11:15 | 32.23572 | 34.87070 | 5038 ft | 210 kts | 107° |
| 2026-04-22 11:15 | 32.23153 | 34.88698 | 5082 ft | 205 kts | 107° |
| 2026-04-22 11:16 | 32.22740 | 34.90297 | 5014 ft | 201 kts | 107° |
| 2026-04-22 11:16 | 32.22339 | 34.91849 | 5008 ft | 196 kts | 107° |
| 2026-04-22 11:16 | 32.21939 | 34.93387 | 5005 ft | 197 kts | 107° |
| 2026-04-22 11:16 | 32.21535 | 34.94933 | 4989 ft | 197 kts | 107° |
| 2026-04-22 11:17 | 32.21131 | 34.96482 | 4810 ft | 199 kts | 107° |
| 2026-04-22 11:17 | 32.20683 | 34.98042 | 4303 ft | 203 kts | 117° |
| 2026-04-22 11:17 | 32.19676 | 34.99159 | 3656 ft | 202 kts | 160° |
| 2026-04-22 11:17 | 32.18310 | 34.99260 | 3284 ft | 194 kts | 187° |
| 2026-04-22 11:18 | 32.17435 | 34.99163 | 3175 ft | 188 kts | 182° |
| 2026-04-22 11:18 | 32.16131 | 34.99012 | 2968 ft | 190 kts | 190° |
| 2026-04-22 11:18 | 32.14875 | 34.98471 | 2793 ft | 194 kts | 205° |
| 2026-04-22 11:18 | 32.13688 | 34.97734 | 2582 ft | 188 kts | 208° |
| 2026-04-22 11:19 | 32.12566 | 34.97002 | 2565 ft | 189 kts | 209° |
| 2026-04-22 11:19 | 32.11387 | 34.96235 | 2264 ft | 194 kts | 210° |
| 2026-04-22 11:19 | 32.09858 | 34.95258 | 1947 ft | 181 kts | 211° |
| 2026-04-22 11:19 | 32.09128 | 34.94784 | 1772 ft | 174 kts | 214° |
| 2026-04-22 11:20 | 32.08133 | 34.94120 | 1534 ft | 154 kts | 211° |
| 2026-04-22 11:20 | 32.07167 | 34.93491 | 1346 ft | 162 kts | 211° |
| 2026-04-22 11:20 | 32.06193 | 34.92862 | 1143 ft | 159 kts | 212° |
| 2026-04-22 11:20 | 32.05227 | 34.92235 | 938 ft | 157 kts | 213° |
| 2026-04-22 11:21 | 32.04263 | 34.91609 | 687 ft | 157 kts | 214° |
| 2026-04-22 11:21 | 32.03317 | 34.90983 | 521 ft | 157 kts | 212° |
| 2026-04-22 11:21 | 32.02375 | 34.90391 | 297 ft | 150 kts | 212° |
| 2026-04-22 11:21 | 32.01493 | 34.89825 | 129 ft | 139 kts | 213° |
| 2026-04-22 11:22 | 32.00718 | 34.89311 | 119 ft | 112 kts | 210° |
| 2026-04-22 11:22 | 32.00225 | 34.89007 | 120 ft | 36 kts | 193° |
| 2026-04-22 11:22 | 32.00055 | 34.89000 | 121 ft | 3 kts | 179° |
| 2026-04-22 11:22 | 32.00033 | 34.89001 | 120 ft | 0 kts | 174° |
| 2026-04-22 11:23 | 32.00029 | 34.89001 | 120 ft | 0 kts | 174° |
| 2026-04-22 11:23 | 32.00026 | 34.89002 | 121 ft | 1 kts | 174° |
| 2026-04-22 11:23 | 32.00011 | 34.89004 | 122 ft | 4 kts | 169° |
| 2026-04-22 11:23 | 31.99979 | 34.89033 | 119 ft | 9 kts | 130° |
| 2026-04-22 11:24 | 31.99930 | 34.89116 | 120 ft | 8 kts | 124° |
| 2026-04-22 11:24 | 31.99878 | 34.89139 | 122 ft | 9 kts | 192° |
| 2026-04-22 11:24 | 31.99814 | 34.89115 | 122 ft | 10 kts | 198° |
| 2026-04-22 11:24 | 31.99757 | 34.89094 | 122 ft | 2 kts | 196° |
| 2026-04-22 11:25 | 31.99738 | 34.89087 | 121 ft | 3 kts | 197° |
| 2026-04-22 11:25 | 31.99712 | 34.89075 | 120 ft | 5 kts | 216° |
| 2026-04-22 11:25 | 31.99718 | 34.89038 | 120 ft | 5 kts | 291° |
| 2026-04-22 11:25 | 31.99731 | 34.88994 | 122 ft | 6 kts | 288° |
| 2026-04-22 11:26 | 31.99735 | 34.88981 | 121 ft | 1 kts | 288° |